sensor_id;sensor_type;location;lat;lon;timestamp;P1;durP1;ratioP1;P2;durP2;ratioP2
8636;SDS011;4356;49.068;8.658;2023-02-16T00:01:22;7.63;;;7.13;;
8636;SDS011;4356;49.068;8.658;2023-02-16T00:03:50;8.97;;;8.27;;
8636;SDS011;4356;49.068;8.658;2023-02-16T00:06:17;9.20;;;8.20;;
8636;SDS011;4356;49.068;8.658;2023-02-16T00:08:47;9.87;;;9.07;;
8636;SDS011;4356;49.068;8.658;2023-02-16T00:11:35;9.83;;;9.00;;
8636;SDS011;4356;49.068;8.658;2023-02-16T00:14:19;13.07;;;10.23;;
8636;SDS011;4356;49.068;8.658;2023-02-16T00:16:50;11.70;;;10.07;;
8636;SDS011;4356;49.068;8.658;2023-02-16T00:19:18;11.33;;;10.13;;
8636;SDS011;4356;49.068;8.658;2023-02-16T00:21:46;12.07;;;10.87;;
8636;SDS011;4356;49.068;8.658;2023-02-16T00:24:13;13.13;;;9.70;;
8636;SDS011;4356;49.068;8.658;2023-02-16T00:26:39;11.47;;;10.43;;
8636;SDS011;4356;49.068;8.658;2023-02-16T00:29:06;11.23;;;9.80;;
8636;SDS011;4356;49.068;8.658;2023-02-16T00:31:38;11.63;;;10.30;;
8636;SDS011;4356;49.068;8.658;2023-02-16T00:37:11;10.57;;;9.63;;
8636;SDS011;4356;49.068;8.658;2023-02-16T00:39:38;13.73;;;10.17;;
8636;SDS011;4356;49.068;8.658;2023-02-16T00:42:06;11.43;;;10.27;;
8636;SDS011;4356;49.068;8.658;2023-02-16T00:44:48;12.80;;;11.50;;
8636;SDS011;4356;49.068;8.658;2023-02-16T00:49:47;12.77;;;11.60;;
8636;SDS011;4356;49.068;8.658;2023-02-16T00:54:59;13.93;;;12.63;;
8636;SDS011;4356;49.068;8.658;2023-02-16T00:57:29;12.40;;;11.23;;
8636;SDS011;4356;49.068;8.658;2023-02-16T01:00:04;12.03;;;10.80;;
8636;SDS011;4356;49.068;8.658;2023-02-16T01:02:30;12.43;;;11.23;;
8636;SDS011;4356;49.068;8.658;2023-02-16T01:04:56;13.80;;;11.77;;
8636;SDS011;4356;49.068;8.658;2023-02-16T01:07:21;12.53;;;11.47;;
8636;SDS011;4356;49.068;8.658;2023-02-16T01:10:05;15.27;;;12.90;;
8636;SDS011;4356;49.068;8.658;2023-02-16T01:12:50;13.93;;;12.03;;
8636;SDS011;4356;49.068;8.658;2023-02-16T01:15:16;13.10;;;11.33;;
8636;SDS011;4356;49.068;8.658;2023-02-16T01:17:46;12.43;;;11.37;;
8636;SDS011;4356;49.068;8.658;2023-02-16T01:20:16;12.83;;;10.83;;
8636;SDS011;4356;49.068;8.658;2023-02-16T01:22:44;11.53;;;10.43;;
8636;SDS011;4356;49.068;8.658;2023-02-16T01:25:10;11.57;;;10.57;;
8636;SDS011;4356;49.068;8.658;2023-02-16T01:27:36;17.03;;;11.43;;
8636;SDS011;4356;49.068;8.658;2023-02-16T01:30:06;20.53;;;9.97;;
8636;SDS011;4356;49.068;8.658;2023-02-16T01:32:36;11.67;;;10.47;;
8636;SDS011;4356;49.068;8.658;2023-02-16T01:35:02;11.57;;;10.37;;
8636;SDS011;4356;49.068;8.658;2023-02-16T01:37:28;18.50;;;11.77;;
8636;SDS011;4356;49.068;8.658;2023-02-16T01:39:53;13.07;;;11.83;;
8636;SDS011;4356;49.068;8.658;2023-02-16T01:43:02;12.20;;;11.10;;
8636;SDS011;4356;49.068;8.658;2023-02-16T01:45:32;12.00;;;11.00;;
8636;SDS011;4356;49.068;8.658;2023-02-16T01:48:06;12.57;;;11.07;;
8636;SDS011;4356;49.068;8.658;2023-02-16T01:50:48;12.83;;;11.03;;
8636;SDS011;4356;49.068;8.658;2023-02-16T01:53:27;12.33;;;11.13;;
8636;SDS011;4356;49.068;8.658;2023-02-16T01:56:00;11.77;;;10.77;;
8636;SDS011;4356;49.068;8.658;2023-02-16T02:03:53;8.10;;;7.60;;
8636;SDS011;4356;49.068;8.658;2023-02-16T02:06:37;8.57;;;7.87;;
8636;SDS011;4356;49.068;8.658;2023-02-16T02:09:17;8.33;;;7.73;;
8636;SDS011;4356;49.068;8.658;2023-02-16T02:12:08;8.50;;;7.90;;
8636;SDS011;4356;49.068;8.658;2023-02-16T02:14:41;8.23;;;7.63;;
8636;SDS011;4356;49.068;8.658;2023-02-16T02:17:08;9.70;;;8.90;;
8636;SDS011;4356;49.068;8.658;2023-02-16T02:19:40;11.50;;;10.50;;
8636;SDS011;4356;49.068;8.658;2023-02-16T02:28:13;14.53;;;11.93;;
8636;SDS011;4356;49.068;8.658;2023-02-16T02:31:34;13.27;;;11.97;;
8636;SDS011;4356;49.068;8.658;2023-02-16T02:36:36;12.50;;;11.20;;
8636;SDS011;4356;49.068;8.658;2023-02-16T02:39:24;11.67;;;10.77;;
8636;SDS011;4356;49.068;8.658;2023-02-16T02:41:52;10.40;;;9.60;;
8636;SDS011;4356;49.068;8.658;2023-02-16T02:44:35;11.00;;;10.13;;
8636;SDS011;4356;49.068;8.658;2023-02-16T02:47:06;11.17;;;10.17;;
8636;SDS011;4356;49.068;8.658;2023-02-16T02:49:32;10.53;;;9.70;;
8636;SDS011;4356;49.068;8.658;2023-02-16T02:51:58;10.97;;;10.07;;
8636;SDS011;4356;49.068;8.658;2023-02-16T02:54:29;11.10;;;10.10;;
8636;SDS011;4356;49.068;8.658;2023-02-16T02:57:24;10.77;;;9.83;;
8636;SDS011;4356;49.068;8.658;2023-02-16T03:00:24;10.67;;;9.67;;
8636;SDS011;4356;49.068;8.658;2023-02-16T03:03:27;12.03;;;10.93;;
8636;SDS011;4356;49.068;8.658;2023-02-16T03:05:58;11.83;;;10.67;;
8636;SDS011;4356;49.068;8.658;2023-02-16T03:08:32;11.60;;;10.60;;
8636;SDS011;4356;49.068;8.658;2023-02-16T03:11:03;11.27;;;10.33;;
8636;SDS011;4356;49.068;8.658;2023-02-16T03:13:53;10.77;;;9.87;;
8636;SDS011;4356;49.068;8.658;2023-02-16T03:16:24;11.73;;;10.73;;
8636;SDS011;4356;49.068;8.658;2023-02-16T03:18:55;11.23;;;10.23;;
8636;SDS011;4356;49.068;8.658;2023-02-16T03:21:40;10.93;;;9.93;;
8636;SDS011;4356;49.068;8.658;2023-02-16T03:24:26;11.13;;;10.23;;
8636;SDS011;4356;49.068;8.658;2023-02-16T03:27:18;11.37;;;10.47;;
8636;SDS011;4356;49.068;8.658;2023-02-16T03:30:07;10.87;;;9.87;;
8636;SDS011;4356;49.068;8.658;2023-02-16T03:32:35;13.73;;;10.27;;
8636;SDS011;4356;49.068;8.658;2023-02-16T03:35:02;9.63;;;8.93;;
8636;SDS011;4356;49.068;8.658;2023-02-16T03:37:28;10.80;;;9.90;;
8636;SDS011;4356;49.068;8.658;2023-02-16T03:39:54;10.50;;;9.50;;
8636;SDS011;4356;49.068;8.658;2023-02-16T03:42:38;10.70;;;9.77;;
8636;SDS011;4356;49.068;8.658;2023-02-16T03:45:03;11.23;;;10.27;;
8636;SDS011;4356;49.068;8.658;2023-02-16T03:47:29;10.07;;;9.33;;
8636;SDS011;4356;49.068;8.658;2023-02-16T03:49:55;10.67;;;9.80;;
8636;SDS011;4356;49.068;8.658;2023-02-16T03:52:20;11.47;;;10.47;;
8636;SDS011;4356;49.068;8.658;2023-02-16T03:54:46;10.97;;;10.00;;
8636;SDS011;4356;49.068;8.658;2023-02-16T03:57:12;9.13;;;8.50;;
8636;SDS011;4356;49.068;8.658;2023-02-16T03:59:37;10.17;;;9.37;;
8636;SDS011;4356;49.068;8.658;2023-02-16T04:02:03;10.67;;;9.70;;
8636;SDS011;4356;49.068;8.658;2023-02-16T04:04:28;9.87;;;9.07;;
8636;SDS011;4356;49.068;8.658;2023-02-16T04:06:54;10.10;;;9.30;;
8636;SDS011;4356;49.068;8.658;2023-02-16T04:09:22;10.57;;;9.57;;
8636;SDS011;4356;49.068;8.658;2023-02-16T04:11:47;11.17;;;10.23;;
8636;SDS011;4356;49.068;8.658;2023-02-16T04:14:31;9.87;;;9.17;;
8636;SDS011;4356;49.068;8.658;2023-02-16T04:16:57;10.00;;;9.20;;
8636;SDS011;4356;49.068;8.658;2023-02-16T04:19:22;10.57;;;9.77;;
8636;SDS011;4356;49.068;8.658;2023-02-16T04:21:49;9.03;;;8.40;;
8636;SDS011;4356;49.068;8.658;2023-02-16T04:24:17;9.40;;;8.37;;
8636;SDS011;4356;49.068;8.658;2023-02-16T04:26:42;9.70;;;8.80;;
8636;SDS011;4356;49.068;8.658;2023-02-16T04:29:10;9.17;;;8.37;;
8636;SDS011;4356;49.068;8.658;2023-02-16T04:31:35;9.23;;;8.40;;
8636;SDS011;4356;49.068;8.658;2023-02-16T04:34:01;9.13;;;8.43;;
8636;SDS011;4356;49.068;8.658;2023-02-16T04:36:27;9.83;;;9.13;;
8636;SDS011;4356;49.068;8.658;2023-02-16T04:38:52;9.33;;;8.53;;
8636;SDS011;4356;49.068;8.658;2023-02-16T04:41:18;10.37;;;9.47;;
8636;SDS011;4356;49.068;8.658;2023-02-16T04:43:43;9.33;;;8.63;;
8636;SDS011;4356;49.068;8.658;2023-02-16T04:46:09;9.77;;;8.97;;
8636;SDS011;4356;49.068;8.658;2023-02-16T04:48:34;9.60;;;8.90;;
8636;SDS011;4356;49.068;8.658;2023-02-16T04:51:01;9.90;;;9.10;;
8636;SDS011;4356;49.068;8.658;2023-02-16T04:53:28;9.43;;;8.70;;
8636;SDS011;4356;49.068;8.658;2023-02-16T04:55:54;10.10;;;9.30;;
8636;SDS011;4356;49.068;8.658;2023-02-16T04:58:19;10.50;;;9.63;;
8636;SDS011;4356;49.068;8.658;2023-02-16T05:00:45;9.77;;;8.97;;
8636;SDS011;4356;49.068;8.658;2023-02-16T05:03:10;9.57;;;8.77;;
8636;SDS011;4356;49.068;8.658;2023-02-16T05:05:36;10.17;;;9.30;;
8636;SDS011;4356;49.068;8.658;2023-02-16T05:08:02;9.80;;;9.00;;
8636;SDS011;4356;49.068;8.658;2023-02-16T05:10:28;9.67;;;8.87;;
8636;SDS011;4356;49.068;8.658;2023-02-16T05:12:53;10.67;;;9.87;;
8636;SDS011;4356;49.068;8.658;2023-02-16T05:15:38;9.90;;;9.10;;
8636;SDS011;4356;49.068;8.658;2023-02-16T05:18:03;10.87;;;9.97;;
8636;SDS011;4356;49.068;8.658;2023-02-16T05:20:29;9.70;;;8.90;;
8636;SDS011;4356;49.068;8.658;2023-02-16T05:23:13;9.97;;;9.17;;
8636;SDS011;4356;49.068;8.658;2023-02-16T05:25:39;10.80;;;9.87;;
8636;SDS011;4356;49.068;8.658;2023-02-16T05:28:04;12.47;;;11.33;;
8636;SDS011;4356;49.068;8.658;2023-02-16T05:30:30;10.73;;;9.93;;
8636;SDS011;4356;49.068;8.658;2023-02-16T05:32:56;10.50;;;9.70;;
8636;SDS011;4356;49.068;8.658;2023-02-16T05:35:21;10.13;;;9.23;;
8636;SDS011;4356;49.068;8.658;2023-02-16T05:37:47;10.73;;;9.87;;
8636;SDS011;4356;49.068;8.658;2023-02-16T05:40:13;10.43;;;9.63;;
8636;SDS011;4356;49.068;8.658;2023-02-16T05:42:38;11.80;;;10.67;;
8636;SDS011;4356;49.068;8.658;2023-02-16T05:45:04;10.93;;;9.93;;
8636;SDS011;4356;49.068;8.658;2023-02-16T05:47:30;11.07;;;10.07;;
8636;SDS011;4356;49.068;8.658;2023-02-16T05:49:56;10.03;;;9.13;;
8636;SDS011;4356;49.068;8.658;2023-02-16T05:52:21;9.97;;;8.97;;
8636;SDS011;4356;49.068;8.658;2023-02-16T05:54:47;9.93;;;9.03;;
8636;SDS011;4356;49.068;8.658;2023-02-16T05:57:12;10.23;;;9.33;;
8636;SDS011;4356;49.068;8.658;2023-02-16T05:59:38;11.57;;;10.47;;
8636;SDS011;4356;49.068;8.658;2023-02-16T06:02:04;10.70;;;9.60;;
8636;SDS011;4356;49.068;8.658;2023-02-16T06:04:29;9.60;;;8.87;;
8636;SDS011;4356;49.068;8.658;2023-02-16T06:06:56;9.97;;;9.07;;
8636;SDS011;4356;49.068;8.658;2023-02-16T06:09:22;9.93;;;9.13;;
8636;SDS011;4356;49.068;8.658;2023-02-16T06:11:48;10.97;;;9.50;;
8636;SDS011;4356;49.068;8.658;2023-02-16T06:14:15;14.40;;;12.93;;
8636;SDS011;4356;49.068;8.658;2023-02-16T06:16:44;11.37;;;10.27;;
8636;SDS011;4356;49.068;8.658;2023-02-16T06:19:12;11.03;;;9.93;;
8636;SDS011;4356;49.068;8.658;2023-02-16T06:21:38;11.77;;;10.53;;
8636;SDS011;4356;49.068;8.658;2023-02-16T06:24:05;11.47;;;10.33;;
8636;SDS011;4356;49.068;8.658;2023-02-16T06:26:32;10.53;;;9.53;;
8636;SDS011;4356;49.068;8.658;2023-02-16T06:28:58;10.87;;;9.87;;
8636;SDS011;4356;49.068;8.658;2023-02-16T06:31:24;13.03;;;11.77;;
8636;SDS011;4356;49.068;8.658;2023-02-16T06:33:50;12.57;;;11.53;;
8636;SDS011;4356;49.068;8.658;2023-02-16T06:36:17;12.10;;;11.00;;
8636;SDS011;4356;49.068;8.658;2023-02-16T06:38:42;10.97;;;10.07;;
8636;SDS011;4356;49.068;8.658;2023-02-16T06:41:08;11.23;;;10.13;;
8636;SDS011;4356;49.068;8.658;2023-02-16T06:43:34;10.27;;;9.27;;
8636;SDS011;4356;49.068;8.658;2023-02-16T06:46:00;10.53;;;9.57;;
8636;SDS011;4356;49.068;8.658;2023-02-16T06:48:25;10.60;;;9.50;;
8636;SDS011;4356;49.068;8.658;2023-02-16T06:50:51;9.70;;;8.73;;
8636;SDS011;4356;49.068;8.658;2023-02-16T06:53:16;10.17;;;9.00;;
8636;SDS011;4356;49.068;8.658;2023-02-16T06:55:43;11.43;;;10.43;;
8636;SDS011;4356;49.068;8.658;2023-02-16T06:58:11;12.57;;;11.37;;
8636;SDS011;4356;49.068;8.658;2023-02-16T07:00:37;11.13;;;10.13;;
8636;SDS011;4356;49.068;8.658;2023-02-16T07:03:03;10.40;;;9.50;;
8636;SDS011;4356;49.068;8.658;2023-02-16T07:05:28;10.90;;;9.97;;
8636;SDS011;4356;49.068;8.658;2023-02-16T07:07:54;10.17;;;9.37;;
8636;SDS011;4356;49.068;8.658;2023-02-16T07:10:20;9.93;;;9.13;;
8636;SDS011;4356;49.068;8.658;2023-02-16T07:12:46;10.13;;;9.33;;
8636;SDS011;4356;49.068;8.658;2023-02-16T07:15:12;11.03;;;10.13;;
8636;SDS011;4356;49.068;8.658;2023-02-16T07:17:39;9.43;;;8.63;;
8636;SDS011;4356;49.068;8.658;2023-02-16T07:20:09;10.13;;;9.23;;
8636;SDS011;4356;49.068;8.658;2023-02-16T07:22:36;12.20;;;11.20;;
8636;SDS011;4356;49.068;8.658;2023-02-16T07:25:02;12.40;;;11.33;;
8636;SDS011;4356;49.068;8.658;2023-02-16T07:27:27;12.20;;;11.17;;
8636;SDS011;4356;49.068;8.658;2023-02-16T07:29:53;11.77;;;10.83;;
8636;SDS011;4356;49.068;8.658;2023-02-16T07:32:19;13.53;;;12.13;;
8636;SDS011;4356;49.068;8.658;2023-02-16T07:34:45;8.90;;;8.20;;
8636;SDS011;4356;49.068;8.658;2023-02-16T07:37:11;9.03;;;8.33;;
8636;SDS011;4356;49.068;8.658;2023-02-16T07:39:36;10.43;;;9.67;;
8636;SDS011;4356;49.068;8.658;2023-02-16T07:42:02;11.17;;;10.27;;
8636;SDS011;4356;49.068;8.658;2023-02-16T07:44:27;11.93;;;10.83;;
8636;SDS011;4356;49.068;8.658;2023-02-16T07:46:53;27.03;;;22.57;;
8636;SDS011;4356;49.068;8.658;2023-02-16T07:49:19;13.00;;;11.80;;
8636;SDS011;4356;49.068;8.658;2023-02-16T07:51:44;12.70;;;11.70;;
8636;SDS011;4356;49.068;8.658;2023-02-16T07:54:10;14.37;;;13.00;;
8636;SDS011;4356;49.068;8.658;2023-02-16T07:56:35;14.77;;;13.23;;
8636;SDS011;4356;49.068;8.658;2023-02-16T07:59:02;13.57;;;12.37;;
8636;SDS011;4356;49.068;8.658;2023-02-16T08:01:29;14.17;;;12.87;;
8636;SDS011;4356;49.068;8.658;2023-02-16T08:03:55;13.57;;;12.37;;
8636;SDS011;4356;49.068;8.658;2023-02-16T08:06:21;13.83;;;12.47;;
8636;SDS011;4356;49.068;8.658;2023-02-16T08:08:48;13.43;;;12.27;;
8636;SDS011;4356;49.068;8.658;2023-02-16T08:11:21;16.70;;;14.43;;
8636;SDS011;4356;49.068;8.658;2023-02-16T08:13:48;17.43;;;15.83;;
8636;SDS011;4356;49.068;8.658;2023-02-16T08:16:19;14.10;;;12.80;;
8636;SDS011;4356;49.068;8.658;2023-02-16T08:18:47;13.67;;;12.47;;
8636;SDS011;4356;49.068;8.658;2023-02-16T08:21:16;14.37;;;13.00;;
8636;SDS011;4356;49.068;8.658;2023-02-16T08:23:45;14.40;;;12.93;;
8636;SDS011;4356;49.068;8.658;2023-02-16T08:26:20;13.93;;;12.70;;
8636;SDS011;4356;49.068;8.658;2023-02-16T08:28:47;14.97;;;13.47;;
8636;SDS011;4356;49.068;8.658;2023-02-16T08:31:19;15.73;;;14.37;;
8636;SDS011;4356;49.068;8.658;2023-02-16T08:33:50;13.10;;;11.80;;
8636;SDS011;4356;49.068;8.658;2023-02-16T08:36:21;12.63;;;11.43;;
8636;SDS011;4356;49.068;8.658;2023-02-16T08:38:52;12.47;;;11.27;;
8636;SDS011;4356;49.068;8.658;2023-02-16T08:41:18;13.00;;;11.80;;
8636;SDS011;4356;49.068;8.658;2023-02-16T08:43:46;13.73;;;12.53;;
8636;SDS011;4356;49.068;8.658;2023-02-16T08:46:12;13.63;;;12.30;;
8636;SDS011;4356;49.068;8.658;2023-02-16T08:48:38;13.93;;;12.77;;
8636;SDS011;4356;49.068;8.658;2023-02-16T08:51:04;14.13;;;12.70;;
8636;SDS011;4356;49.068;8.658;2023-02-16T08:53:31;14.20;;;12.67;;
8636;SDS011;4356;49.068;8.658;2023-02-16T08:56:01;12.50;;;11.20;;
8636;SDS011;4356;49.068;8.658;2023-02-16T08:58:28;13.50;;;11.43;;
8636;SDS011;4356;49.068;8.658;2023-02-16T09:00:55;13.60;;;12.40;;
8636;SDS011;4356;49.068;8.658;2023-02-16T09:03:22;13.07;;;11.80;;
8636;SDS011;4356;49.068;8.658;2023-02-16T09:05:50;15.10;;;13.57;;
8636;SDS011;4356;49.068;8.658;2023-02-16T09:08:21;14.80;;;12.93;;
8636;SDS011;4356;49.068;8.658;2023-02-16T09:10:46;14.60;;;13.17;;
8636;SDS011;4356;49.068;8.658;2023-02-16T09:13:12;15.27;;;13.83;;
8636;SDS011;4356;49.068;8.658;2023-02-16T09:15:43;15.07;;;13.50;;
8636;SDS011;4356;49.068;8.658;2023-02-16T09:18:10;13.60;;;12.30;;
8636;SDS011;4356;49.068;8.658;2023-02-16T09:20:37;14.73;;;13.33;;
8636;SDS011;4356;49.068;8.658;2023-02-16T09:23:04;13.77;;;12.27;;
8636;SDS011;4356;49.068;8.658;2023-02-16T09:25:33;13.67;;;12.47;;
8636;SDS011;4356;49.068;8.658;2023-02-16T09:28:00;14.00;;;12.30;;
8636;SDS011;4356;49.068;8.658;2023-02-16T09:30:29;15.73;;;14.13;;
8636;SDS011;4356;49.068;8.658;2023-02-16T09:32:57;14.33;;;12.87;;
8636;SDS011;4356;49.068;8.658;2023-02-16T09:35:23;15.00;;;13.47;;
8636;SDS011;4356;49.068;8.658;2023-02-16T09:37:49;14.97;;;13.57;;
8636;SDS011;4356;49.068;8.658;2023-02-16T09:40:15;17.57;;;12.87;;
8636;SDS011;4356;49.068;8.658;2023-02-16T09:45:56;13.80;;;12.37;;
8636;SDS011;4356;49.068;8.658;2023-02-16T09:51:05;13.03;;;11.70;;
8636;SDS011;4356;49.068;8.658;2023-02-16T09:53:40;11.90;;;10.80;;
8636;SDS011;4356;49.068;8.658;2023-02-16T10:09:55;8.83;;;8.13;;
8636;SDS011;4356;49.068;8.658;2023-02-16T10:12:23;9.37;;;8.17;;
8636;SDS011;4356;49.068;8.658;2023-02-16T10:14:56;9.23;;;8.33;;
8636;SDS011;4356;49.068;8.658;2023-02-16T10:22:38;8.80;;;7.90;;
8636;SDS011;4356;49.068;8.658;2023-02-16T10:28:16;8.90;;;8.20;;
8636;SDS011;4356;49.068;8.658;2023-02-16T10:30:50;8.67;;;7.97;;
8636;SDS011;4356;49.068;8.658;2023-02-16T10:33:29;8.70;;;8.03;;
8636;SDS011;4356;49.068;8.658;2023-02-16T10:35:59;8.57;;;7.87;;
8636;SDS011;4356;49.068;8.658;2023-02-16T10:41:35;8.97;;;8.13;;
8636;SDS011;4356;49.068;8.658;2023-02-16T10:44:30;10.20;;;9.20;;
8636;SDS011;4356;49.068;8.658;2023-02-16T10:47:05;9.77;;;8.77;;
8636;SDS011;4356;49.068;8.658;2023-02-16T10:49:45;10.37;;;9.57;;
8636;SDS011;4356;49.068;8.658;2023-02-16T10:52:12;10.30;;;9.30;;
8636;SDS011;4356;49.068;8.658;2023-02-16T10:54:39;9.00;;;8.20;;
8636;SDS011;4356;49.068;8.658;2023-02-16T10:57:07;9.73;;;8.70;;
8636;SDS011;4356;49.068;8.658;2023-02-16T10:59:47;9.73;;;8.83;;
8636;SDS011;4356;49.068;8.658;2023-02-16T11:02:17;11.33;;;8.57;;
8636;SDS011;4356;49.068;8.658;2023-02-16T11:04:44;9.73;;;8.90;;
8636;SDS011;4356;49.068;8.658;2023-02-16T11:07:17;9.67;;;8.93;;
8636;SDS011;4356;49.068;8.658;2023-02-16T11:09:48;10.63;;;9.60;;
8636;SDS011;4356;49.068;8.658;2023-02-16T11:12:22;9.57;;;8.77;;
8636;SDS011;4356;49.068;8.658;2023-02-16T11:14:50;9.40;;;8.37;;
8636;SDS011;4356;49.068;8.658;2023-02-16T11:17:19;8.17;;;7.43;;
8636;SDS011;4356;49.068;8.658;2023-02-16T11:19:48;8.87;;;8.07;;
8636;SDS011;4356;49.068;8.658;2023-02-16T11:22:25;8.57;;;7.63;;
8636;SDS011;4356;49.068;8.658;2023-02-16T11:25:21;9.43;;;8.00;;
8636;SDS011;4356;49.068;8.658;2023-02-16T11:27:55;7.80;;;7.17;;
8636;SDS011;4356;49.068;8.658;2023-02-16T11:30:27;8.67;;;7.97;;
8636;SDS011;4356;49.068;8.658;2023-02-16T11:32:57;8.30;;;7.60;;
8636;SDS011;4356;49.068;8.658;2023-02-16T11:35:25;8.47;;;7.60;;
8636;SDS011;4356;49.068;8.658;2023-02-16T11:37:51;9.23;;;8.43;;
8636;SDS011;4356;49.068;8.658;2023-02-16T11:40:19;9.37;;;8.10;;
8636;SDS011;4356;49.068;8.658;2023-02-16T11:42:52;8.93;;;8.10;;
8636;SDS011;4356;49.068;8.658;2023-02-16T11:45:22;8.70;;;8.00;;
8636;SDS011;4356;49.068;8.658;2023-02-16T11:48:04;8.30;;;7.60;;
8636;SDS011;4356;49.068;8.658;2023-02-16T11:50:33;8.93;;;7.73;;
8636;SDS011;4356;49.068;8.658;2023-02-16T11:55:45;7.70;;;7.10;;
8636;SDS011;4356;49.068;8.658;2023-02-16T11:58:25;7.70;;;7.07;;
8636;SDS011;4356;49.068;8.658;2023-02-16T12:06:44;7.50;;;6.80;;
8636;SDS011;4356;49.068;8.658;2023-02-16T12:09:23;7.50;;;6.97;;
8636;SDS011;4356;49.068;8.658;2023-02-16T12:20:40;8.27;;;6.30;;
8636;SDS011;4356;49.068;8.658;2023-02-16T12:31:25;6.57;;;5.97;;
8636;SDS011;4356;49.068;8.658;2023-02-16T12:34:11;6.90;;;6.30;;
8636;SDS011;4356;49.068;8.658;2023-02-16T12:36:55;6.83;;;6.20;;
8636;SDS011;4356;49.068;8.658;2023-02-16T12:39:38;7.67;;;6.80;;
8636;SDS011;4356;49.068;8.658;2023-02-16T12:45:08;6.30;;;5.80;;
8636;SDS011;4356;49.068;8.658;2023-02-16T12:50:23;6.57;;;6.07;;
8636;SDS011;4356;49.068;8.658;2023-02-16T12:52:53;6.67;;;6.00;;
8636;SDS011;4356;49.068;8.658;2023-02-16T13:06:20;6.27;;;5.67;;
8636;SDS011;4356;49.068;8.658;2023-02-16T13:11:27;7.67;;;5.90;;
8636;SDS011;4356;49.068;8.658;2023-02-16T13:14:14;7.40;;;6.70;;
8636;SDS011;4356;49.068;8.658;2023-02-16T13:16:47;8.50;;;6.50;;
8636;SDS011;4356;49.068;8.658;2023-02-16T13:19:17;7.10;;;6.40;;
8636;SDS011;4356;49.068;8.658;2023-02-16T13:26:55;6.30;;;5.80;;
8636;SDS011;4356;49.068;8.658;2023-02-16T13:41:03;6.23;;;5.30;;
8636;SDS011;4356;49.068;8.658;2023-02-16T13:43:45;7.03;;;6.17;;
8636;SDS011;4356;49.068;8.658;2023-02-16T13:46:19;6.27;;;5.77;;
8636;SDS011;4356;49.068;8.658;2023-02-16T13:48:47;7.50;;;6.40;;
8636;SDS011;4356;49.068;8.658;2023-02-16T13:51:15;6.60;;;6.10;;
8636;SDS011;4356;49.068;8.658;2023-02-16T13:53:52;6.07;;;5.60;;
8636;SDS011;4356;49.068;8.658;2023-02-16T13:58:58;5.97;;;5.47;;
8636;SDS011;4356;49.068;8.658;2023-02-16T14:01:45;6.10;;;5.67;;
8636;SDS011;4356;49.068;8.658;2023-02-16T14:12:03;9.60;;;6.33;;
8636;SDS011;4356;49.068;8.658;2023-02-16T14:19:56;6.20;;;5.70;;
8636;SDS011;4356;49.068;8.658;2023-02-16T14:22:28;6.47;;;5.67;;
8636;SDS011;4356;49.068;8.658;2023-02-16T14:27:52;7.93;;;6.57;;
8636;SDS011;4356;49.068;8.658;2023-02-16T14:30:51;6.30;;;5.70;;
8636;SDS011;4356;49.068;8.658;2023-02-16T14:33:28;7.27;;;6.33;;
8636;SDS011;4356;49.068;8.658;2023-02-16T14:41:12;7.13;;;6.40;;
8636;SDS011;4356;49.068;8.658;2023-02-16T14:49:38;10.73;;;7.00;;
8636;SDS011;4356;49.068;8.658;2023-02-16T15:00:49;5.97;;;5.57;;
8636;SDS011;4356;49.068;8.658;2023-02-16T15:03:36;6.33;;;5.73;;
8636;SDS011;4356;49.068;8.658;2023-02-16T15:06:17;6.10;;;5.60;;
8636;SDS011;4356;49.068;8.658;2023-02-16T15:09:01;8.77;;;5.47;;
8636;SDS011;4356;49.068;8.658;2023-02-16T15:14:04;5.97;;;5.47;;
8636;SDS011;4356;49.068;8.658;2023-02-16T15:16:33;6.00;;;5.40;;
8636;SDS011;4356;49.068;8.658;2023-02-16T15:19:06;5.97;;;5.47;;
8636;SDS011;4356;49.068;8.658;2023-02-16T15:21:36;5.87;;;5.47;;
8636;SDS011;4356;49.068;8.658;2023-02-16T15:24:02;5.20;;;4.90;;
8636;SDS011;4356;49.068;8.658;2023-02-16T15:26:33;6.00;;;5.27;;
8636;SDS011;4356;49.068;8.658;2023-02-16T15:29:01;6.80;;;5.07;;
8636;SDS011;4356;49.068;8.658;2023-02-16T15:31:38;5.27;;;4.87;;
8636;SDS011;4356;49.068;8.658;2023-02-16T15:34:05;5.00;;;4.60;;
8636;SDS011;4356;49.068;8.658;2023-02-16T15:36:39;5.47;;;4.97;;
8636;SDS011;4356;49.068;8.658;2023-02-16T15:39:29;5.10;;;4.60;;
8636;SDS011;4356;49.068;8.658;2023-02-16T15:42:08;5.20;;;4.70;;
8636;SDS011;4356;49.068;8.658;2023-02-16T15:44:40;4.67;;;4.23;;
8636;SDS011;4356;49.068;8.658;2023-02-16T15:47:29;5.13;;;4.63;;
8636;SDS011;4356;49.068;8.658;2023-02-16T15:49:54;5.60;;;5.10;;
8636;SDS011;4356;49.068;8.658;2023-02-16T15:52:22;5.87;;;4.80;;
8636;SDS011;4356;49.068;8.658;2023-02-16T15:54:51;5.40;;;4.93;;
8636;SDS011;4356;49.068;8.658;2023-02-16T15:57:28;5.10;;;4.70;;
8636;SDS011;4356;49.068;8.658;2023-02-16T15:59:57;6.77;;;5.30;;
8636;SDS011;4356;49.068;8.658;2023-02-16T16:02:31;6.80;;;4.90;;
8636;SDS011;4356;49.068;8.658;2023-02-16T16:05:01;5.57;;;5.07;;
8636;SDS011;4356;49.068;8.658;2023-02-16T16:07:35;6.20;;;5.10;;
8636;SDS011;4356;49.068;8.658;2023-02-16T16:12:45;5.67;;;5.17;;
8636;SDS011;4356;49.068;8.658;2023-02-16T16:15:19;6.30;;;5.70;;
8636;SDS011;4356;49.068;8.658;2023-02-16T16:17:47;6.40;;;5.80;;
8636;SDS011;4356;49.068;8.658;2023-02-16T16:20:31;7.40;;;5.60;;
8636;SDS011;4356;49.068;8.658;2023-02-16T16:23:01;6.07;;;5.43;;
8636;SDS011;4356;49.068;8.658;2023-02-16T16:25:40;6.33;;;5.83;;
8636;SDS011;4356;49.068;8.658;2023-02-16T16:28:12;6.17;;;5.67;;
8636;SDS011;4356;49.068;8.658;2023-02-16T16:31:12;6.30;;;5.70;;
8636;SDS011;4356;49.068;8.658;2023-02-16T16:34:02;6.87;;;5.67;;
8636;SDS011;4356;49.068;8.658;2023-02-16T16:36:34;6.60;;;6.10;;
8636;SDS011;4356;49.068;8.658;2023-02-16T16:39:19;7.57;;;5.90;;
8636;SDS011;4356;49.068;8.658;2023-02-16T16:47:09;6.63;;;6.03;;
8636;SDS011;4356;49.068;8.658;2023-02-16T16:49:58;6.87;;;5.80;;
8636;SDS011;4356;49.068;8.658;2023-02-16T16:52:40;12.37;;;6.63;;
8636;SDS011;4356;49.068;8.658;2023-02-16T16:57:43;6.97;;;6.27;;
8636;SDS011;4356;49.068;8.658;2023-02-16T17:00:10;11.53;;;5.97;;
8636;SDS011;4356;49.068;8.658;2023-02-16T17:02:36;6.40;;;5.80;;
8636;SDS011;4356;49.068;8.658;2023-02-16T17:05:03;11.73;;;5.97;;
8636;SDS011;4356;49.068;8.658;2023-02-16T17:07:29;7.47;;;6.20;;
8636;SDS011;4356;49.068;8.658;2023-02-16T17:09:57;11.13;;;7.37;;
8636;SDS011;4356;49.068;8.658;2023-02-16T17:12:23;9.83;;;8.20;;
8636;SDS011;4356;49.068;8.658;2023-02-16T17:14:50;17.60;;;10.77;;
8636;SDS011;4356;49.068;8.658;2023-02-16T17:17:16;12.77;;;9.07;;
8636;SDS011;4356;49.068;8.658;2023-02-16T17:19:42;7.97;;;6.20;;
8636;SDS011;4356;49.068;8.658;2023-02-16T17:22:14;7.07;;;6.00;;
8636;SDS011;4356;49.068;8.658;2023-02-16T17:24:41;10.67;;;6.00;;
8636;SDS011;4356;49.068;8.658;2023-02-16T17:27:08;9.73;;;6.60;;
8636;SDS011;4356;49.068;8.658;2023-02-16T17:29:34;6.60;;;5.83;;
8636;SDS011;4356;49.068;8.658;2023-02-16T17:32:00;6.03;;;5.63;;
8636;SDS011;4356;49.068;8.658;2023-02-16T17:34:26;6.67;;;6.00;;
8636;SDS011;4356;49.068;8.658;2023-02-16T17:37:02;6.93;;;5.97;;
8636;SDS011;4356;49.068;8.658;2023-02-16T17:39:33;10.20;;;6.10;;
8636;SDS011;4356;49.068;8.658;2023-02-16T17:41:59;6.83;;;6.20;;
8636;SDS011;4356;49.068;8.658;2023-02-16T17:44:25;8.07;;;6.10;;
8636;SDS011;4356;49.068;8.658;2023-02-16T17:46:51;11.37;;;7.17;;
8636;SDS011;4356;49.068;8.658;2023-02-16T17:49:17;7.03;;;5.97;;
8636;SDS011;4356;49.068;8.658;2023-02-16T17:51:43;7.47;;;6.70;;
8636;SDS011;4356;49.068;8.658;2023-02-16T17:54:09;10.43;;;9.00;;
8636;SDS011;4356;49.068;8.658;2023-02-16T17:56:34;11.17;;;10.07;;
8636;SDS011;4356;49.068;8.658;2023-02-16T17:59:03;11.10;;;9.50;;
8636;SDS011;4356;49.068;8.658;2023-02-16T18:01:29;8.30;;;7.50;;
8636;SDS011;4356;49.068;8.658;2023-02-16T18:03:54;9.77;;;8.77;;
8636;SDS011;4356;49.068;8.658;2023-02-16T18:06:21;13.40;;;11.13;;
8636;SDS011;4356;49.068;8.658;2023-02-16T18:08:50;11.83;;;10.77;;
8636;SDS011;4356;49.068;8.658;2023-02-16T18:11:16;15.20;;;11.23;;